This is the latest recevied weather packets stored in our database for station/object K3HM. If no packets are shown the sender has not sent any weather packets the latest 1 day(s).
| Time | Temp. | Humidity | Pressure | Rain* | Wind** | Luminosity | Snow |
|---|---|---|---|---|---|---|---|
| 1777998867 | 19.44° C | 51% | 1011.8 hPa | 0 mm | 4.02 m/s, 233° | 353 W/m² | - |
| 1777998566 | 19.44° C | 52% | 1011.9 hPa | 0 mm | 3.58 m/s, 269° | 308 W/m² | - |
| 1777998261 | 19.44° C | 52% | 1011.8 hPa | 0 mm | 2.24 m/s, 213° | 284 W/m² | - |
| 1777997958 | 20° C | 52% | 1012.2 hPa | 0 mm | 3.58 m/s, 259° | 339 W/m² | - |
| 1777997655 | 18.89° C | 55% | 1011.9 hPa | 0 mm | 3.13 m/s, 229° | 390 W/m² | - |
| 1777997352 | 18.89° C | 54% | 1012.2 hPa | 0 mm | 3.58 m/s, 276° | 252 W/m² | - |
| 1777997050 | 18.89° C | 57% | 1012.4 hPa | 0 mm | 1.79 m/s, 328° | 225 W/m² | - |
| 1777996746 | 18.89° C | 55% | 1012.4 hPa | 0 mm | 3.13 m/s, 258° | 181 W/m² | - |
| 1777996442 | 18.89° C | 54% | 1012.3 hPa | 0 mm | 4.47 m/s, 268° | 173 W/m² | - |
| 1777996140 | 19.44° C | 53% | 1012.4 hPa | 0 mm | 4.47 m/s, 311° | 215 W/m² | - |
| 1777995835 | 19.44° C | 53% | 1012.3 hPa | 0 mm | 2.24 m/s, 220° | 266 W/m² | - |
| 1777995532 | 19.44° C | 56% | 1012.5 hPa | 0 mm | 3.58 m/s, 219° | 312 W/m² | - |
| 1777995229 | 19.44° C | 55% | 1012.6 hPa | 0 mm | 3.58 m/s, 216° | 645 W/m² | - |
| 1777994927 | 19.44° C | 53% | 1012.4 hPa | 0 mm | 3.58 m/s, 284° | 421 W/m² | - |
| 1777994624 | 19.44° C | 54% | 1012.7 hPa | 0 mm | 6.71 m/s, 266° | 638 W/m² | - |
| 1777994323 | 18.89° C | 56% | 1012.5 hPa | 0 mm | 4.47 m/s, 271° | 384 W/m² | - |
| 1777994020 | 19.44° C | 57% | 1012.4 hPa | 0 mm | 4.02 m/s, 199° | 466 W/m² | - |
| 1777993717 | 18.89° C | 56% | 1012.5 hPa | 0 mm | 4.92 m/s, 205° | 319 W/m² | - |
| 1777993415 | 19.44° C | 56% | 1012.5 hPa | 0 mm | 4.47 m/s, 222° | 260 W/m² | - |
| 1777993115 | 19.44° C | 58% | 1012.4 hPa | 0 mm | 2.68 m/s, 223° | 270 W/m² | - |
| 1777992813 | 20° C | 56% | 1012.4 hPa | 0 mm | 5.81 m/s, 221° | 651 W/m² | - |
| 1777992510 | 20° C | 57% | 1012.2 hPa | 0 mm | 4.02 m/s, 235° | 441 W/m² | - |
| 1777992209 | 20° C | 57% | 1012.3 hPa | 0 mm | 3.58 m/s, 232° | 632 W/m² | - |
| 1777991905 | 19.44° C | 57% | 1012.4 hPa | 0 mm | 3.13 m/s, 255° | 158 W/m² | - |
| 1777991603 | 19.44° C | 56% | 1012.5 hPa | 0 mm | 5.36 m/s, 225° | 568 W/m² | - |
* Rain latest hour (hover to see other rain measurements)
** Current wind speed in m/s (hover to see current wind gust speed)